createdAt,value
2022-10-07T00:01:11.585Z,70.37
2022-10-07T00:03:14.471Z,70.73
2022-10-07T00:05:16.210Z,70.63
2022-10-07T00:07:17.923Z,70.53
2022-10-07T00:09:19.565Z,70.70
2022-10-07T00:11:25.314Z,71.02
2022-10-07T00:13:28.480Z,71.16
2022-10-07T00:15:30.141Z,71.08
2022-10-07T00:17:31.766Z,70.89
2022-10-07T00:19:33.422Z,71.02
2022-10-07T00:21:36.962Z,71.21
2022-10-07T00:23:40.111Z,71.01
2022-10-07T00:25:44.570Z,71.07
2022-10-07T00:27:46.688Z,71.07
2022-10-07T00:29:49.161Z,71.29
2022-10-07T00:31:56.282Z,71.27
2022-10-07T00:33:59.564Z,70.99
2022-10-07T00:36:01.351Z,71.03
2022-10-07T00:38:03.039Z,71.32
2022-10-07T00:40:05.181Z,71.80
2022-10-07T00:42:06.959Z,71.61
2022-10-07T00:44:32.600Z,70.97
2022-10-07T00:46:37.784Z,71.04
2022-10-07T00:48:40.212Z,71.08
2022-10-07T00:50:43.127Z,71.08
2022-10-07T00:53:10.365Z,71.36
2022-10-07T00:55:17.024Z,71.28
2022-10-07T00:57:21.282Z,71.39
2022-10-07T00:59:22.965Z,71.99
2022-10-07T01:01:25.165Z,71.50
2022-10-07T01:03:27.144Z,71.54
2022-10-07T01:05:29.283Z,71.48
2022-10-07T01:07:31.374Z,71.47
2022-10-07T01:09:33.091Z,71.21
2022-10-07T01:11:45.805Z,71.77
2022-10-07T01:14:15.614Z,71.69
2022-10-07T01:16:29.668Z,71.23
2022-10-07T01:18:40.283Z,70.94
2022-10-07T01:20:45.369Z,71.52
2022-10-07T01:23:05.336Z,71.41
2022-10-07T01:25:15.858Z,71.19
2022-10-07T01:27:20.891Z,71.12
2022-10-07T01:29:43.603Z,71.27
2022-10-07T01:31:58.964Z,71.47
2022-10-07T01:34:01.997Z,71.90
2022-10-07T01:36:10.975Z,72.09
2022-10-07T01:38:16.350Z,71.94
2022-10-07T01:40:27.256Z,71.74
2022-10-07T01:42:29.569Z,71.70
2022-10-07T01:44:31.292Z,71.80
2022-10-07T01:46:37.751Z,71.81
2022-10-07T01:48:39.694Z,71.16
2022-10-07T01:50:41.941Z,71.63
2022-10-07T01:53:15.672Z,71.51
2022-10-07T01:55:32.662Z,71.74
2022-10-07T01:57:37.258Z,71.44
2022-10-07T01:59:41.549Z,71.24
2022-10-07T02:01:54.140Z,71.29
2022-10-07T02:04:50.134Z,71.49
2022-10-07T02:07:00.740Z,71.39
2022-10-07T02:09:09.994Z,71.55
2022-10-07T02:11:13.605Z,71.47
2022-10-07T02:13:47.782Z,71.25
2022-10-07T02:15:58.261Z,71.50
2022-10-07T02:18:06.309Z,71.40
2022-10-07T02:20:12.581Z,71.75
2022-10-07T02:22:25.406Z,71.67
2022-10-07T02:24:30.704Z,71.57
2022-10-07T02:26:34.208Z,71.83
2022-10-07T02:28:40.443Z,71.89
2022-10-07T02:30:46.136Z,71.44
2022-10-07T02:32:58.902Z,71.72
2022-10-07T02:35:05.406Z,72.05
2022-10-07T02:37:16.383Z,72.33
2022-10-07T02:39:18.234Z,72.19
2022-10-07T02:41:34.031Z,72.06
2022-10-07T02:43:36.468Z,72.11
2022-10-07T02:46:01.837Z,72.54
2022-10-07T02:48:06.336Z,72.37
2022-10-07T02:50:12.247Z,72.33
2022-10-07T02:52:26.518Z,72.41
2022-10-07T02:54:37.583Z,72.62
2022-10-07T02:56:41.455Z,72.43
2022-10-07T02:58:46.575Z,72.26
2022-10-07T03:00:53.072Z,72.55
2022-10-07T03:02:58.233Z,72.29
2022-10-07T03:05:00.101Z,72.69
2022-10-07T03:07:01.921Z,72.52
2022-10-07T03:09:04.661Z,72.37
2022-10-07T03:11:06.373Z,72.17
2022-10-07T03:13:07.987Z,72.60
2022-10-07T03:15:13.675Z,72.46
2022-10-07T03:17:15.622Z,73.04
2022-10-07T03:19:17.343Z,72.60
2022-10-07T03:21:19.000Z,72.43
2022-10-07T03:23:20.798Z,72.70
2022-10-07T03:25:22.387Z,72.40
2022-10-07T03:27:24.166Z,72.27
2022-10-07T03:29:26.483Z,72.21
2022-10-07T03:31:29.166Z,71.95
2022-10-07T03:33:30.854Z,71.94
2022-10-07T03:35:32.520Z,72.05
2022-10-07T03:37:34.190Z,72.26
2022-10-07T03:39:35.891Z,72.22
2022-10-07T03:41:37.627Z,72.33
2022-10-07T03:43:39.298Z,72.58
2022-10-07T03:45:44.643Z,72.70
2022-10-07T03:47:46.806Z,72.97
2022-10-07T03:49:48.729Z,72.54
2022-10-07T03:51:50.358Z,72.78
2022-10-07T03:53:54.763Z,72.79
2022-10-07T03:55:56.949Z,72.86
2022-10-07T03:57:59.633Z,73.06
2022-10-07T04:00:01.830Z,73.02
2022-10-07T04:02:03.627Z,72.84
2022-10-07T04:04:07.661Z,73.03
2022-10-07T04:06:10.417Z,73.16
2022-10-07T04:08:17.442Z,73.02
2022-10-07T04:10:20.443Z,73.38
2022-10-07T04:12:22.666Z,73.23
2022-10-07T04:14:24.374Z,73.03
2022-10-07T04:16:26.200Z,73.34
2022-10-07T04:18:27.873Z,73.18
2022-10-07T04:20:29.506Z,73.18
2022-10-07T04:22:31.549Z,72.74
2022-10-07T04:24:33.212Z,73.26
2022-10-07T04:26:34.903Z,73.33
2022-10-07T04:28:37.033Z,73.80
2022-10-07T04:30:40.555Z,74.09
2022-10-07T04:32:42.202Z,74.28
2022-10-07T04:34:43.815Z,74.34
2022-10-07T04:36:45.499Z,73.93
2022-10-07T04:38:50.599Z,73.57
2022-10-07T04:40:52.361Z,73.66
2022-10-07T04:43:12.534Z,73.26
2022-10-07T04:45:14.216Z,73.35
2022-10-07T04:47:16.036Z,73.35
2022-10-07T04:49:17.827Z,73.61
2022-10-07T04:51:19.507Z,73.81
2022-10-07T04:53:21.565Z,73.53
2022-10-07T04:55:23.396Z,73.39
2022-10-07T04:57:25.018Z,73.47
2022-10-07T04:59:29.821Z,74.04
2022-10-07T05:01:31.786Z,73.71
2022-10-07T05:03:37.048Z,73.93
2022-10-07T05:05:42.782Z,73.97
2022-10-07T05:07:49.156Z,73.49
2022-10-07T05:09:51.310Z,73.75
2022-10-07T05:11:55.749Z,74.05
2022-10-07T05:13:58.422Z,73.85
2022-10-07T05:16:02.188Z,74.11
2022-10-07T05:18:07.172Z,74.09
2022-10-07T05:20:10.230Z,74.14
2022-10-07T05:22:13.835Z,73.94
2022-10-07T05:24:15.476Z,73.88
2022-10-07T05:26:17.109Z,73.94
2022-10-07T05:28:18.818Z,73.80
2022-10-07T05:30:21.107Z,73.62
2022-10-07T05:32:22.735Z,73.67
2022-10-07T05:34:24.389Z,73.35
2022-10-07T05:36:26.661Z,73.68
2022-10-07T05:38:29.056Z,73.16
2022-10-07T05:40:30.730Z,72.96
2022-10-07T05:42:32.353Z,72.89
2022-10-07T05:44:33.987Z,72.84
2022-10-07T05:46:35.584Z,72.88
2022-10-07T05:48:39.593Z,73.10
2022-10-07T05:50:42.429Z,73.13
2022-10-07T05:52:45.428Z,72.83
2022-10-07T05:54:47.129Z,72.77
2022-10-07T05:56:49.127Z,72.89
2022-10-07T05:58:52.652Z,73.07
2022-10-07T06:00:58.982Z,72.91
2022-10-07T06:03:04.229Z,72.60
2022-10-07T06:05:06.358Z,72.88
2022-10-07T06:07:08.075Z,73.00
2022-10-07T06:09:41.170Z,73.25
2022-10-07T06:12:01.465Z,73.02
2022-10-07T06:14:04.601Z,72.64
2022-10-07T06:16:09.165Z,72.69
2022-10-07T06:18:11.061Z,72.84
2022-10-07T06:20:15.203Z,73.16
2022-10-07T06:22:16.892Z,73.05
2022-10-07T06:24:18.568Z,73.15
2022-10-07T06:26:21.145Z,73.13
2022-10-07T06:28:23.885Z,72.99
2022-10-07T06:30:25.923Z,72.88
2022-10-07T06:32:30.415Z,72.96
2022-10-07T06:34:32.103Z,72.74
2022-10-07T06:36:34.166Z,72.90
2022-10-07T06:38:35.791Z,72.80
2022-10-07T06:40:41.791Z,72.93
2022-10-07T06:42:43.496Z,72.52
2022-10-07T06:44:45.150Z,72.63
2022-10-07T06:46:46.756Z,72.43
2022-10-07T06:48:48.566Z,72.65
2022-10-07T06:50:51.963Z,72.58
2022-10-07T06:52:53.825Z,72.41
2022-10-07T06:54:55.836Z,72.01
2022-10-07T06:56:57.634Z,72.35
2022-10-07T06:58:59.542Z,72.08
2022-10-07T07:01:01.551Z,72.46
2022-10-07T07:03:04.790Z,72.21
2022-10-07T07:05:08.768Z,72.22
2022-10-07T07:07:10.448Z,72.14
2022-10-07T07:09:12.402Z,72.24
2022-10-07T07:11:33.323Z,72.22
2022-10-07T07:13:36.027Z,72.38
2022-10-07T07:15:38.810Z,72.38
2022-10-07T07:17:40.573Z,73.03
2022-10-07T07:19:42.597Z,73.00
2022-10-07T07:21:46.570Z,73.16
2022-10-07T07:23:53.883Z,73.02
2022-10-07T07:25:55.601Z,72.83
2022-10-07T07:28:00.881Z,73.01
2022-10-07T07:30:04.260Z,72.40
2022-10-07T07:32:06.559Z,72.84
2022-10-07T07:34:14.209Z,72.42
2022-10-07T07:36:16.556Z,72.07
2022-10-07T07:38:22.182Z,73.21
2022-10-07T07:40:26.678Z,72.65
2022-10-07T07:42:28.421Z,72.49
2022-10-07T07:44:34.049Z,72.36
2022-10-07T07:46:40.155Z,72.27
2022-10-07T07:48:41.845Z,72.15
2022-10-07T07:50:44.019Z,72.11
2022-10-07T07:52:45.632Z,72.66
2022-10-07T07:54:48.178Z,72.95
2022-10-07T07:56:49.931Z,72.78
2022-10-07T07:58:51.635Z,72.63
2022-10-07T08:01:06.243Z,72.76
2022-10-07T08:03:08.102Z,72.34
2022-10-07T08:05:10.392Z,72.33
2022-10-07T08:07:13.147Z,72.46
2022-10-07T08:09:21.385Z,72.25
2022-10-07T08:11:23.492Z,71.98
2022-10-07T08:13:25.371Z,71.75
2022-10-07T08:15:27.150Z,72.20
2022-10-07T08:17:28.802Z,72.28
2022-10-07T08:19:35.754Z,72.09
2022-10-07T08:21:37.547Z,71.65
2022-10-07T08:23:40.140Z,71.62
2022-10-07T08:25:41.772Z,71.81
2022-10-07T08:27:44.332Z,71.48
2022-10-07T08:29:46.506Z,71.78
2022-10-07T08:31:49.434Z,71.15
2022-10-07T08:33:51.428Z,71.00
2022-10-07T08:35:59.614Z,71.04
2022-10-07T08:38:01.354Z,70.86
2022-10-07T08:40:03.235Z,70.94
2022-10-07T08:42:15.335Z,70.69
2022-10-07T08:44:26.757Z,70.34
2022-10-07T08:46:32.607Z,70.11
2022-10-07T08:48:40.721Z,69.67
2022-10-07T08:50:59.264Z,69.75
2022-10-07T08:53:04.254Z,69.83
2022-10-07T08:55:18.797Z,69.59
2022-10-07T08:57:38.517Z,69.45
2022-10-07T08:59:46.907Z,69.20
2022-10-07T09:02:15.694Z,69.24
2022-10-07T09:04:36.136Z,68.76
2022-10-07T09:06:43.155Z,68.63
2022-10-07T09:08:52.348Z,68.66
2022-10-07T09:10:56.765Z,68.45
2022-10-07T09:13:10.745Z,67.74
2022-10-07T09:15:40.252Z,67.59
2022-10-07T09:17:52.972Z,67.43
2022-10-07T09:19:59.927Z,67.51
2022-10-07T09:22:11.611Z,68.02
2022-10-07T09:24:19.582Z,67.94
2022-10-07T09:26:21.422Z,67.87
2022-10-07T09:28:31.707Z,67.93
2022-10-07T09:30:33.638Z,67.94
2022-10-07T09:32:40.644Z,67.50
2022-10-07T09:34:42.320Z,67.53
2022-10-07T09:37:10.987Z,67.09
2022-10-07T09:39:27.171Z,66.70
2022-10-07T09:41:38.574Z,66.48
2022-10-07T09:43:52.530Z,66.61
2022-10-07T09:45:56.329Z,66.44
2022-10-07T09:48:08.459Z,66.26
2022-10-07T09:50:38.613Z,66.40
2022-10-07T09:52:55.722Z,65.86
2022-10-07T09:55:31.893Z,65.61
2022-10-07T09:57:36.052Z,65.33
2022-10-07T09:59:40.969Z,64.54
2022-10-07T10:01:49.764Z,63.67
2022-10-07T10:03:58.423Z,63.67
2022-10-07T10:06:09.894Z,63.20
2022-10-07T10:08:14.624Z,63.18
2022-10-07T10:10:25.866Z,62.73
2022-10-07T10:12:27.794Z,62.59
2022-10-07T10:15:09.191Z,61.44
2022-10-07T10:17:32.075Z,61.31
2022-10-07T10:19:48.705Z,61.09
2022-10-07T10:21:56.253Z,60.92
2022-10-07T10:24:06.911Z,60.83
2022-10-07T10:26:34.311Z,59.94
2022-10-07T10:28:52.870Z,59.61
2022-10-07T10:31:07.288Z,59.05
2022-10-07T10:33:33.337Z,59.20
2022-10-07T10:35:46.686Z,58.94
2022-10-07T10:38:08.703Z,59.07
2022-10-07T10:40:40.222Z,59.16
2022-10-07T10:43:10.274Z,58.89
2022-10-07T10:45:32.168Z,58.71
2022-10-07T10:47:53.116Z,58.72
2022-10-07T10:50:04.318Z,58.66
2022-10-07T10:52:37.160Z,58.15
2022-10-07T10:54:50.703Z,57.54
2022-10-07T10:56:58.483Z,58.00
2022-10-07T10:59:39.647Z,57.86
2022-10-07T11:01:44.416Z,57.49
2022-10-07T11:04:05.583Z,56.91
2022-10-07T11:06:11.447Z,56.42
2022-10-07T11:08:37.775Z,56.60
2022-10-07T11:10:53.546Z,55.74
2022-10-07T11:13:06.287Z,55.44
2022-10-07T11:15:21.559Z,55.17
2022-10-07T11:17:30.515Z,54.46
2022-10-07T11:20:06.223Z,55.06
2022-10-07T11:22:19.092Z,55.08
2022-10-07T11:24:27.999Z,54.39
2022-10-07T11:26:37.809Z,54.28
2022-10-07T11:28:43.902Z,53.74
2022-10-07T11:31:11.242Z,53.65
2022-10-07T11:33:24.356Z,53.08
2022-10-07T11:35:37.190Z,53.44
2022-10-07T11:37:50.730Z,53.02
2022-10-07T11:39:53.777Z,52.79
2022-10-07T11:42:17.023Z,52.84
2022-10-07T11:44:32.014Z,52.34
2022-10-07T11:46:40.608Z,52.38
2022-10-07T11:49:11.445Z,52.59
2022-10-07T11:51:22.776Z,52.09
2022-10-07T11:53:28.481Z,50.86
2022-10-07T11:55:45.316Z,50.48
2022-10-07T11:57:54.877Z,50.44
2022-10-07T12:00:08.323Z,50.40
2022-10-07T12:02:28.532Z,49.95
2022-10-07T12:04:30.181Z,49.83
2022-10-07T12:06:31.869Z,49.71
2022-10-07T12:08:36.758Z,49.92
2022-10-07T12:10:38.797Z,49.94
2022-10-07T12:12:44.618Z,49.20
2022-10-07T12:15:02.279Z,48.86
2022-10-07T12:17:25.244Z,49.01
2022-10-07T12:19:40.086Z,48.86
2022-10-07T12:21:59.762Z,48.48
2022-10-07T12:24:14.485Z,48.48
2022-10-07T12:26:31.173Z,48.44
2022-10-07T12:28:35.283Z,47.37
2022-10-07T12:31:00.635Z,47.73
2022-10-07T12:33:15.318Z,47.70
2022-10-07T12:35:52.900Z,47.52
2022-10-07T12:38:10.938Z,47.01
2022-10-07T12:40:27.633Z,47.02
2022-10-07T12:42:29.855Z,47.25
2022-10-07T12:44:36.324Z,46.92
2022-10-07T12:46:37.981Z,46.37
2022-10-07T12:49:05.080Z,46.00
2022-10-07T12:51:18.484Z,45.95
2022-10-07T12:53:24.856Z,46.11
2022-10-07T12:55:37.381Z,46.89
2022-10-07T12:57:42.828Z,46.72
2022-10-07T13:00:08.430Z,46.83
2022-10-07T13:02:31.634Z,46.72
2022-10-07T13:04:58.965Z,46.91
2022-10-07T13:07:25.321Z,46.67
2022-10-07T13:09:46.814Z,45.74
2022-10-07T13:12:06.961Z,45.91
2022-10-07T13:14:33.491Z,45.96
2022-10-07T13:16:38.297Z,45.20
2022-10-07T13:18:46.327Z,45.37
2022-10-07T13:21:03.355Z,45.71
2022-10-07T13:23:13.168Z,45.85
2022-10-07T13:25:19.734Z,45.66
2022-10-07T13:27:28.128Z,46.02
2022-10-07T13:29:37.884Z,45.49
2022-10-07T13:31:39.649Z,45.44
2022-10-07T13:33:43.258Z,45.55
2022-10-07T13:35:44.941Z,45.26
2022-10-07T13:37:47.374Z,44.85
2022-10-07T13:39:49.136Z,44.29
2022-10-07T13:41:55.470Z,43.92
2022-10-07T13:44:00.672Z,43.46
2022-10-07T13:46:05.328Z,43.49
2022-10-07T13:48:07.168Z,43.76
2022-10-07T13:50:19.703Z,43.73
2022-10-07T13:52:35.427Z,43.67
2022-10-07T13:54:37.626Z,43.18
2022-10-07T13:56:42.630Z,43.35
2022-10-07T13:58:45.054Z,43.85
2022-10-07T14:00:49.041Z,43.60
2022-10-07T14:02:51.888Z,43.45
2022-10-07T14:05:18.733Z,43.34
2022-10-07T14:07:22.341Z,43.50
2022-10-07T14:09:38.319Z,43.26
2022-10-07T14:11:40.035Z,43.46
2022-10-07T14:13:43.359Z,43.33
2022-10-07T14:15:51.115Z,43.49
2022-10-07T14:17:56.313Z,43.71
2022-10-07T14:20:05.654Z,43.94
2022-10-07T14:22:19.213Z,43.62
2022-10-07T14:24:21.059Z,43.91
2022-10-07T14:26:22.719Z,44.47
2022-10-07T14:28:24.461Z,44.42
2022-10-07T14:30:58.248Z,44.42
2022-10-07T14:33:31.118Z,44.13
2022-10-07T14:35:34.052Z,44.12
2022-10-07T14:37:35.680Z,44.45
2022-10-07T14:39:48.199Z,44.39
2022-10-07T14:41:50.176Z,45.05
2022-10-07T14:43:52.085Z,45.33
2022-10-07T14:45:53.807Z,45.87
2022-10-07T14:47:55.486Z,46.10
2022-10-07T14:50:01.854Z,46.54
2022-10-07T14:52:06.301Z,46.74
2022-10-07T14:54:08.254Z,46.91
2022-10-07T14:56:15.234Z,47.46
2022-10-07T14:58:16.897Z,47.50
2022-10-07T15:00:21.733Z,47.59
2022-10-07T15:02:23.481Z,48.36
2022-10-07T15:04:25.331Z,48.89
2022-10-07T15:06:28.441Z,48.93
2022-10-07T15:08:31.428Z,49.12
2022-10-07T15:10:33.404Z,49.20
2022-10-07T15:12:35.247Z,49.34
2022-10-07T15:14:37.209Z,49.04
2022-10-07T15:16:39.194Z,49.15
2022-10-07T15:18:45.144Z,49.08
2022-10-07T15:20:55.870Z,49.34
2022-10-07T15:22:57.632Z,48.82
2022-10-07T15:24:59.458Z,48.75
2022-10-07T15:27:01.583Z,48.33
2022-10-07T15:29:03.329Z,48.28
2022-10-07T15:31:09.494Z,49.06
2022-10-07T15:33:12.584Z,49.51
2022-10-07T15:35:14.320Z,49.81
2022-10-07T15:37:17.189Z,49.96
2022-10-07T15:39:21.512Z,50.72
2022-10-07T15:41:43.262Z,50.57
2022-10-07T15:43:44.874Z,51.11
2022-10-07T15:45:46.630Z,50.65
2022-10-07T15:47:50.528Z,50.47
2022-10-07T15:49:52.189Z,50.33
2022-10-07T15:51:55.503Z,50.74
2022-10-07T15:53:57.570Z,50.68
2022-10-07T15:55:59.231Z,50.73
2022-10-07T15:58:00.964Z,50.79
2022-10-07T16:00:04.988Z,50.88
2022-10-07T16:02:09.349Z,51.00
2022-10-07T16:04:15.322Z,50.72
2022-10-07T16:06:21.325Z,51.00
2022-10-07T16:08:23.041Z,51.41
2022-10-07T16:10:24.773Z,51.64
2022-10-07T16:12:26.404Z,51.91
2022-10-07T16:14:28.132Z,52.00
2022-10-07T16:16:31.505Z,52.13
2022-10-07T16:18:39.353Z,52.49
2022-10-07T16:20:40.995Z,52.86
2022-10-07T16:22:42.627Z,53.40
2022-10-07T16:24:44.456Z,53.53
2022-10-07T16:26:47.963Z,53.47
2022-10-07T16:29:09.932Z,53.46
2022-10-07T16:31:11.683Z,53.95
2022-10-07T16:33:13.550Z,54.38
2022-10-07T16:35:15.363Z,54.31
2022-10-07T16:37:17.035Z,54.58
2022-10-07T16:39:20.917Z,54.88
2022-10-07T16:41:22.558Z,54.68
2022-10-07T16:43:24.270Z,55.17
2022-10-07T16:45:25.963Z,55.65
2022-10-07T16:47:27.951Z,55.93
2022-10-07T16:49:30.436Z,56.01
2022-10-07T16:51:35.483Z,56.10
2022-10-07T16:53:37.310Z,56.50
2022-10-07T16:55:39.241Z,56.82
2022-10-07T16:57:40.980Z,57.15
2022-10-07T16:59:42.685Z,57.15
2022-10-07T17:01:44.403Z,57.75
2022-10-07T17:03:52.157Z,57.54
2022-10-07T17:05:58.002Z,57.68
2022-10-07T17:07:59.611Z,57.51
2022-10-07T17:10:01.265Z,57.49
2022-10-07T17:12:04.620Z,57.52
2022-10-07T17:14:11.119Z,57.57
2022-10-07T17:16:13.675Z,57.58
2022-10-07T17:18:16.179Z,57.44
2022-10-07T17:20:17.989Z,57.58
2022-10-07T17:22:19.735Z,57.90
2022-10-07T17:24:22.805Z,58.09
2022-10-07T17:26:26.996Z,58.41
2022-10-07T17:28:28.923Z,58.62
2022-10-07T17:30:33.375Z,58.38
2022-10-07T17:32:34.990Z,59.07
2022-10-07T17:34:36.751Z,59.47
2022-10-07T17:36:39.788Z,60.40
2022-10-07T17:38:44.002Z,64.15
2022-10-07T17:40:45.889Z,65.78
2022-10-07T17:42:47.596Z,66.64
2022-10-07T17:44:49.947Z,67.20
2022-10-07T17:46:51.891Z,68.16
2022-10-07T17:48:56.319Z,69.43
2022-10-07T17:51:05.371Z,69.45
2022-10-07T17:53:07.345Z,70.75
2022-10-07T17:55:09.615Z,71.28
2022-10-07T17:57:11.361Z,72.15
2022-10-07T17:59:14.463Z,73.27
2022-10-07T18:01:27.253Z,73.62
2022-10-07T18:03:28.879Z,75.30
2022-10-07T18:05:30.530Z,74.65
2022-10-07T18:07:32.231Z,74.97
2022-10-07T18:09:34.007Z,75.26
2022-10-07T18:11:54.795Z,75.73
2022-10-07T18:14:15.022Z,76.08
2022-10-07T18:16:17.357Z,76.46
2022-10-07T18:18:19.093Z,77.05
2022-10-07T18:20:22.827Z,77.51
2022-10-07T18:22:24.483Z,77.52
2022-10-07T18:24:28.951Z,77.32
2022-10-07T18:26:30.855Z,76.69
2022-10-07T18:28:36.222Z,77.20
2022-10-07T18:30:37.869Z,76.97
2022-10-07T18:32:39.598Z,76.90
2022-10-07T18:34:41.267Z,76.83
2022-10-07T18:36:42.885Z,77.55
2022-10-07T18:38:45.483Z,77.15
2022-10-07T18:40:47.151Z,77.19
2022-10-07T18:42:48.893Z,76.67
2022-10-07T18:44:52.347Z,77.17
2022-10-07T18:46:54.094Z,76.80
2022-10-07T18:48:55.722Z,76.85
2022-10-07T18:50:57.578Z,76.85
2022-10-07T18:53:00.811Z,76.63
2022-10-07T18:55:02.480Z,76.84
2022-10-07T18:57:04.361Z,76.60
2022-10-07T18:59:06.032Z,76.69
2022-10-07T19:01:08.592Z,76.76
2022-10-07T19:03:10.434Z,76.88
2022-10-07T19:05:12.077Z,77.55
2022-10-07T19:07:13.907Z,77.58
2022-10-07T19:09:35.941Z,77.60
2022-10-07T19:11:37.753Z,77.72
2022-10-07T19:13:48.329Z,76.79
2022-10-07T19:15:50.016Z,76.63
2022-10-07T19:17:51.676Z,76.66
2022-10-07T19:19:53.345Z,76.36
2022-10-07T19:21:55.902Z,76.35
2022-10-07T19:23:58.890Z,75.79
2022-10-07T19:26:01.878Z,75.72
2022-10-07T19:28:03.761Z,76.08
2022-10-07T19:30:06.149Z,75.25
2022-10-07T19:32:08.747Z,75.49
2022-10-07T19:34:13.693Z,75.24
2022-10-07T19:36:15.524Z,75.59
2022-10-07T19:38:17.141Z,75.32
2022-10-07T19:40:18.862Z,75.86
2022-10-07T19:42:20.615Z,75.29
2022-10-07T19:44:22.322Z,75.20
2022-10-07T19:46:25.872Z,75.38
2022-10-07T19:48:27.499Z,75.24
2022-10-07T19:50:29.173Z,74.22
2022-10-07T19:52:30.781Z,74.29
2022-10-07T19:54:35.885Z,73.79
2022-10-07T19:56:38.691Z,74.37
2022-10-07T19:58:48.159Z,73.88
2022-10-07T20:00:50.398Z,74.05
2022-10-07T20:02:56.631Z,73.91
2022-10-07T20:04:58.369Z,73.97
2022-10-07T20:07:00.331Z,73.70
2022-10-07T20:09:02.433Z,73.84
2022-10-07T20:11:05.725Z,73.20
2022-10-07T20:13:07.379Z,73.41
2022-10-07T20:15:09.513Z,73.18
2022-10-07T20:17:11.436Z,73.29
2022-10-07T20:19:15.826Z,73.10
2022-10-07T20:21:24.537Z,72.85
2022-10-07T20:23:26.553Z,73.28
2022-10-07T20:25:28.411Z,73.62
2022-10-07T20:27:30.153Z,73.49
2022-10-07T20:29:32.926Z,73.51
2022-10-07T20:31:38.775Z,73.21
2022-10-07T20:33:43.314Z,73.37
2022-10-07T20:35:45.460Z,73.09
2022-10-07T20:37:47.575Z,72.98
2022-10-07T20:40:07.832Z,73.12
2022-10-07T20:42:24.418Z,73.86
2022-10-07T20:44:26.155Z,73.51
2022-10-07T20:46:27.855Z,72.77
2022-10-07T20:48:31.618Z,73.03
2022-10-07T20:50:33.789Z,72.99
2022-10-07T20:52:36.412Z,72.70
2022-10-07T20:54:38.261Z,73.19
2022-10-07T20:56:39.890Z,72.84
2022-10-07T20:58:41.570Z,72.97
2022-10-07T21:00:44.132Z,73.36
2022-10-07T21:02:46.121Z,73.71
2022-10-07T21:04:48.349Z,73.48
2022-10-07T21:06:51.405Z,73.48
2022-10-07T21:08:54.287Z,73.60
2022-10-07T21:11:06.109Z,72.94
2022-10-07T21:13:07.876Z,73.70
2022-10-07T21:15:09.956Z,73.23
2022-10-07T21:17:12.413Z,73.46
2022-10-07T21:19:15.552Z,72.83
2022-10-07T21:21:17.995Z,73.12
2022-10-07T21:23:22.243Z,73.48
2022-10-07T21:25:24.002Z,73.14
2022-10-07T21:27:25.966Z,73.14
2022-10-07T21:29:27.878Z,73.28
2022-10-07T21:31:31.368Z,72.69
2022-10-07T21:33:33.070Z,73.02
2022-10-07T21:35:34.708Z,73.19
2022-10-07T21:37:36.665Z,73.04
2022-10-07T21:39:38.414Z,72.81
2022-10-07T21:41:41.155Z,73.30
2022-10-07T21:43:44.099Z,73.05
2022-10-07T21:45:45.804Z,73.19
2022-10-07T21:47:47.590Z,73.28
2022-10-07T21:49:49.253Z,72.51
2022-10-07T21:51:50.939Z,72.48
2022-10-07T21:53:59.682Z,72.56
2022-10-07T21:56:05.902Z,72.34
2022-10-07T21:58:07.532Z,72.15
2022-10-07T22:00:12.344Z,72.88
2022-10-07T22:02:14.011Z,72.36
2022-10-07T22:04:17.933Z,72.19
2022-10-07T22:06:19.888Z,72.49
2022-10-07T22:08:36.782Z,72.51
2022-10-07T22:10:38.410Z,72.50
2022-10-07T22:12:41.056Z,72.26
2022-10-07T22:14:42.747Z,72.10
2022-10-07T22:16:48.745Z,72.43
2022-10-07T22:18:52.593Z,72.63
2022-10-07T22:20:54.224Z,72.15
2022-10-07T22:22:59.828Z,72.08
2022-10-07T22:25:01.727Z,72.29
2022-10-07T22:27:04.586Z,71.89
2022-10-07T22:29:09.421Z,71.99
2022-10-07T22:31:11.303Z,72.03
2022-10-07T22:33:15.271Z,71.62
2022-10-07T22:35:33.852Z,71.82
2022-10-07T22:37:35.624Z,71.64
2022-10-07T22:39:37.294Z,71.44
2022-10-07T22:41:40.419Z,71.69
2022-10-07T22:43:46.816Z,71.63
2022-10-07T22:45:57.148Z,70.99
2022-10-07T22:47:58.894Z,71.35
2022-10-07T22:50:02.740Z,71.44
2022-10-07T22:52:04.341Z,71.25
2022-10-07T22:54:07.300Z,71.39
2022-10-07T22:56:13.959Z,71.47
2022-10-07T22:58:15.696Z,71.05
2022-10-07T23:00:17.665Z,70.98
2022-10-07T23:02:19.475Z,71.36
2022-10-07T23:04:21.638Z,70.81
2022-10-07T23:06:23.716Z,71.19
2022-10-07T23:08:25.460Z,71.08
2022-10-07T23:10:27.118Z,70.77
2022-10-07T23:12:28.782Z,71.50
2022-10-07T23:14:30.421Z,71.04
2022-10-07T23:16:34.279Z,71.18
2022-10-07T23:18:35.959Z,71.23
2022-10-07T23:20:37.570Z,71.09
2022-10-07T23:22:40.675Z,71.27
2022-10-07T23:24:42.376Z,71.31
2022-10-07T23:26:46.188Z,71.20
2022-10-07T23:28:49.988Z,71.50
2022-10-07T23:30:53.169Z,71.53
2022-10-07T23:32:56.272Z,71.63
2022-10-07T23:34:57.926Z,71.36
2022-10-07T23:36:59.727Z,71.03
2022-10-07T23:39:01.872Z,71.53
2022-10-07T23:41:03.515Z,71.43
2022-10-07T23:43:05.115Z,71.64
2022-10-07T23:45:07.119Z,71.57
2022-10-07T23:47:08.724Z,71.45
2022-10-07T23:49:13.129Z,71.40
2022-10-07T23:51:18.456Z,71.81
2022-10-07T23:53:21.826Z,71.27
2022-10-07T23:55:23.512Z,71.47
2022-10-07T23:57:25.181Z,71.99
2022-10-07T23:59:30.688Z,72.01
